createdAt,value
2022-09-07T00:02:22.559Z,0.88
2022-09-07T00:04:49.043Z,1.40
2022-09-07T00:07:15.582Z,1.05
2022-09-07T00:09:42.416Z,0.93
2022-09-07T00:12:08.950Z,0.80
2022-09-07T00:14:35.416Z,0.82
2022-09-07T00:17:01.911Z,0.80
2022-09-07T00:19:28.382Z,0.98
2022-09-07T00:21:55.004Z,0.98
2022-09-07T00:24:21.500Z,0.77
2022-09-07T00:26:48.111Z,0.95
2022-09-07T00:29:14.761Z,1.00
2022-09-07T00:31:41.403Z,0.70
2022-09-07T00:34:08.054Z,0.55
2022-09-07T00:36:34.552Z,0.90
2022-09-07T00:39:01.055Z,0.70
2022-09-07T00:41:27.604Z,0.70
2022-09-07T00:43:55.396Z,0.82
2022-09-07T00:46:29.169Z,0.85
2022-09-07T00:48:55.718Z,0.70
2022-09-07T00:51:26.021Z,1.00
2022-09-07T00:53:56.145Z,0.73
2022-09-07T00:56:24.240Z,0.82
2022-09-07T00:58:51.242Z,1.98
2022-09-07T01:01:18.073Z,1.10
2022-09-07T01:03:46.335Z,0.70
2022-09-07T01:06:18.844Z,0.95
2022-09-07T01:08:47.360Z,1.00
2022-09-07T01:11:13.907Z,1.45
2022-09-07T01:13:41.142Z,1.48
2022-09-07T01:16:12.905Z,0.70
2022-09-07T01:19:08.716Z,0.80
2022-09-07T01:21:44.528Z,1.17
2022-09-07T01:24:14.288Z,0.70
2022-09-07T01:26:43.914Z,0.80
2022-09-07T01:29:28.650Z,0.82
2022-09-07T01:32:06.253Z,1.20
2022-09-07T01:34:32.826Z,0.75
2022-09-07T01:37:31.596Z,1.27
2022-09-07T01:40:09.991Z,1.23
2022-09-07T01:42:45.066Z,1.00
2022-09-07T01:45:13.863Z,1.00
2022-09-07T01:47:43.366Z,1.40
2022-09-07T01:50:19.013Z,1.20
2022-09-07T01:52:56.448Z,0.77
2022-09-07T01:55:32.867Z,0.70
2022-09-07T01:58:02.042Z,1.45
2022-09-07T02:00:29.638Z,1.38
2022-09-07T02:03:10.533Z,0.85
2022-09-07T02:05:42.424Z,1.20
2022-09-07T02:08:16.612Z,1.30
2022-09-07T02:10:50.620Z,1.05
2022-09-07T02:13:26.274Z,0.85
2022-09-07T02:15:58.951Z,1.08
2022-09-07T02:18:27.562Z,1.20
2022-09-07T02:20:56.156Z,1.15
2022-09-07T02:23:24.133Z,1.02
2022-09-07T02:25:53.737Z,1.02
2022-09-07T02:28:26.265Z,1.48
2022-09-07T02:30:52.794Z,1.17
2022-09-07T02:33:19.517Z,0.70
2022-09-07T02:35:46.547Z,1.00
2022-09-07T02:38:13.045Z,0.73
2022-09-07T02:40:40.202Z,1.02
2022-09-07T02:43:08.361Z,1.17
2022-09-07T02:45:48.197Z,1.05
2022-09-07T02:48:22.010Z,0.85
2022-09-07T02:50:56.393Z,0.90
2022-09-07T02:53:43.670Z,1.30
2022-09-07T02:56:30.519Z,1.00
2022-09-07T02:59:16.867Z,0.70
2022-09-07T03:01:46.350Z,0.90
2022-09-07T03:04:23.941Z,0.95
2022-09-07T03:06:57.431Z,1.23
2022-09-07T03:09:28.148Z,1.33
2022-09-07T03:11:54.790Z,1.10
2022-09-07T03:14:22.994Z,1.00
2022-09-07T03:16:50.873Z,1.08
2022-09-07T03:19:17.555Z,0.85
2022-09-07T03:21:44.234Z,0.95
2022-09-07T03:24:10.692Z,1.50
2022-09-07T03:26:40.083Z,0.98
2022-09-07T03:29:06.589Z,1.05
2022-09-07T03:31:34.411Z,1.40
2022-09-07T03:34:00.851Z,1.08
2022-09-07T03:36:27.396Z,1.20
2022-09-07T03:38:54.939Z,0.93
2022-09-07T03:41:21.385Z,1.15
2022-09-07T03:43:48.397Z,1.00
2022-09-07T03:46:19.285Z,1.13
2022-09-07T03:48:46.775Z,1.00
2022-09-07T03:51:14.057Z,0.90
2022-09-07T03:53:41.427Z,0.80
2022-09-07T03:56:09.090Z,0.93
2022-09-07T03:58:35.901Z,1.02
2022-09-07T04:01:09.944Z,1.25
2022-09-07T04:03:36.807Z,1.85
2022-09-07T04:06:03.595Z,1.20
2022-09-07T04:08:31.589Z,0.73
2022-09-07T04:10:58.859Z,0.73
2022-09-07T04:13:25.909Z,1.20
2022-09-07T04:15:53.947Z,0.70
2022-09-07T04:18:20.607Z,1.00
2022-09-07T04:20:47.433Z,0.75
2022-09-07T04:23:13.916Z,1.25
2022-09-07T04:25:47.103Z,0.90
2022-09-07T04:28:13.554Z,1.63
2022-09-07T04:30:40.089Z,1.52
2022-09-07T04:33:06.626Z,0.90
2022-09-07T04:35:36.025Z,1.02
2022-09-07T04:38:02.516Z,1.05
2022-09-07T04:40:29.006Z,1.05
2022-09-07T04:42:55.479Z,0.90
2022-09-07T04:45:21.927Z,1.42
2022-09-07T04:47:49.081Z,0.90
2022-09-07T04:50:17.025Z,0.98
2022-09-07T04:52:46.773Z,1.00
2022-09-07T04:55:13.478Z,0.90
2022-09-07T04:57:39.909Z,1.10
2022-09-07T05:00:13.212Z,0.88
2022-09-07T05:02:39.706Z,0.65
2022-09-07T05:05:06.554Z,0.60
2022-09-07T05:07:33.250Z,1.02
2022-09-07T05:09:59.727Z,1.05
2022-09-07T05:12:26.231Z,1.00
2022-09-07T05:14:52.683Z,0.82
2022-09-07T05:17:19.763Z,1.17
2022-09-07T05:19:46.194Z,1.08
2022-09-07T05:22:12.663Z,0.88
2022-09-07T05:24:39.059Z,0.70
2022-09-07T05:27:05.538Z,0.70
2022-09-07T05:32:18.376Z,0.90
2022-09-07T05:34:46.035Z,0.90
2022-09-07T05:37:13.261Z,1.13
2022-09-07T05:39:39.753Z,0.90
2022-09-07T05:42:06.427Z,0.50
2022-09-07T05:44:48.347Z,1.33
2022-09-07T05:47:14.908Z,0.93
2022-09-07T05:49:41.351Z,1.05
2022-09-07T05:52:07.802Z,0.75
2022-09-07T05:54:34.737Z,0.68
2022-09-07T05:57:03.178Z,1.00
2022-09-07T05:59:29.615Z,0.95
2022-09-07T06:01:56.257Z,0.90
2022-09-07T06:04:22.845Z,1.00
2022-09-07T06:07:17.785Z,1.50
2022-09-07T06:09:35.754Z,1.08
2022-09-07T06:12:05.372Z,0.60
2022-09-07T06:14:32.444Z,0.63
2022-09-07T06:16:59.078Z,0.60
2022-09-07T06:19:25.532Z,1.40
2022-09-07T06:21:52.031Z,1.30
2022-09-07T06:24:18.627Z,0.95
2022-09-07T06:26:45.232Z,1.15
2022-09-07T06:29:12.020Z,2.03
2022-09-07T06:34:25.640Z,1.10
2022-09-07T06:36:52.085Z,0.95
2022-09-07T06:39:18.709Z,1.33
2022-09-07T06:42:00.758Z,0.70
2022-09-07T06:44:27.485Z,1.48
2022-09-07T06:49:27.807Z,0.93
2022-09-07T06:51:54.786Z,1.45
2022-09-07T06:57:09.425Z,1.13
2022-09-07T06:59:36.702Z,1.75
2022-09-07T07:02:03.694Z,0.93
2022-09-07T07:04:30.243Z,1.23
2022-09-07T07:06:56.717Z,1.40
2022-09-07T07:09:23.173Z,0.95
2022-09-07T07:11:49.786Z,1.60
2022-09-07T07:14:16.712Z,0.95
2022-09-07T07:16:43.378Z,0.65
2022-09-07T07:19:10.462Z,1.67
2022-09-07T07:21:55.355Z,0.60
2022-09-07T07:24:23.384Z,1.58
2022-09-07T07:26:49.959Z,1.15
2022-09-07T07:29:18.754Z,0.82
2022-09-07T07:31:46.924Z,0.93
2022-09-07T07:34:13.468Z,1.73
2022-09-07T07:36:40.397Z,0.80
2022-09-07T07:39:07.032Z,1.10
2022-09-07T07:44:20.862Z,1.60
2022-09-07T07:46:51.100Z,1.75
2022-09-07T07:49:17.895Z,1.15
2022-09-07T07:54:32.679Z,0.50
2022-09-07T07:56:59.110Z,1.65
2022-09-07T07:59:26.243Z,0.70
2022-09-07T08:01:52.804Z,0.85
2022-09-07T08:04:19.342Z,1.08
2022-09-07T08:06:45.745Z,0.90
2022-09-07T08:09:12.126Z,0.70
2022-09-07T08:11:40.248Z,0.90
2022-09-07T08:14:08.663Z,0.90
2022-09-07T08:16:36.326Z,1.30
2022-09-07T08:19:03.152Z,0.82
2022-09-07T08:21:29.891Z,1.17
2022-09-07T08:23:56.373Z,1.13
2022-09-07T08:26:22.862Z,0.82
2022-09-07T08:28:49.382Z,0.70
2022-09-07T08:31:16.515Z,0.73
2022-09-07T08:33:43.215Z,1.98
2022-09-07T08:36:13.438Z,0.90
2022-09-07T08:38:40.220Z,1.33
2022-09-07T08:41:18.966Z,0.95
2022-09-07T08:43:49.413Z,0.70
2022-09-07T08:46:24.481Z,0.50
2022-09-07T08:48:51.008Z,2.67
2022-09-07T08:51:25.286Z,1.77
2022-09-07T08:53:51.761Z,2.17
2022-09-07T08:56:38.450Z,1.30
2022-09-07T08:59:21.482Z,0.68
2022-09-07T09:02:27.148Z,0.75
2022-09-07T09:05:16.093Z,0.70
2022-09-07T09:07:21.863Z,1.10
2022-09-07T09:10:06.099Z,1.75
2022-09-07T09:12:52.245Z,0.63
2022-09-07T09:15:21.712Z,0.95
2022-09-07T09:17:54.024Z,1.95
2022-09-07T09:20:20.745Z,0.85
2022-09-07T09:22:47.714Z,1.60
2022-09-07T09:25:30.291Z,1.10
2022-09-07T09:27:56.667Z,1.20
2022-09-07T09:30:23.601Z,1.23
2022-09-07T09:32:52.563Z,1.23
2022-09-07T09:35:31.751Z,0.80
2022-09-07T09:37:58.395Z,1.13
2022-09-07T09:40:30.087Z,0.90
2022-09-07T09:43:01.679Z,1.55
2022-09-07T09:46:12.078Z,1.10
2022-09-07T09:48:26.862Z,1.27
2022-09-07T09:53:50.797Z,1.42
2022-09-07T09:56:17.268Z,1.67
2022-09-07T10:01:34.531Z,2.22
2022-09-07T10:04:21.531Z,4.85
2022-09-07T10:06:53.044Z,5.38
2022-09-07T10:09:21.293Z,5.05
2022-09-07T10:14:42.058Z,4.28
2022-09-07T10:17:12.818Z,5.30
2022-09-07T10:19:40.498Z,4.90
2022-09-07T10:22:25.792Z,5.07
2022-09-07T10:24:52.342Z,5.60
2022-09-07T10:27:40.760Z,5.90
2022-09-07T10:30:13.454Z,6.53
2022-09-07T10:32:39.780Z,4.63
2022-09-07T10:35:26.513Z,4.72
2022-09-07T10:37:57.220Z,4.70
2022-09-07T10:40:40.094Z,4.05
2022-09-07T10:43:24.514Z,4.65
2022-09-07T10:49:25.386Z,3.47
2022-09-07T10:52:10.762Z,4.65
2022-09-07T10:54:43.487Z,4.70
2022-09-07T10:57:12.856Z,3.17
2022-09-07T11:05:49.415Z,3.28
2022-09-07T11:09:14.866Z,2.08
2022-09-07T11:14:16.271Z,2.42
2022-09-07T11:17:02.970Z,3.30
2022-09-07T11:19:37.742Z,3.20
2022-09-07T11:22:11.136Z,2.63
2022-09-07T11:27:49.775Z,2.40
2022-09-07T11:30:23.680Z,2.75
2022-09-07T11:33:12.614Z,2.30
2022-09-07T11:35:47.364Z,2.65
2022-09-07T11:38:18.305Z,2.72
2022-09-07T11:40:50.632Z,2.67
2022-09-07T11:43:16.973Z,1.60
2022-09-07T11:45:49.398Z,1.90
2022-09-07T11:48:21.371Z,2.70
2022-09-07T11:50:51.298Z,1.70
2022-09-07T11:53:22.742Z,2.08
2022-09-07T11:55:51.125Z,2.38
2022-09-07T11:58:41.670Z,2.17
2022-09-07T12:01:30.602Z,1.63
2022-09-07T12:04:06.014Z,1.83
2022-09-07T12:06:32.502Z,2.38
2022-09-07T12:09:17.095Z,2.00
2022-09-07T12:12:09.803Z,1.58
2022-09-07T12:14:54.898Z,2.55
2022-09-07T12:17:27.313Z,2.17
2022-09-07T12:20:12.759Z,1.83
2022-09-07T12:22:54.336Z,1.75
2022-09-07T12:25:20.762Z,2.25
2022-09-07T12:27:47.320Z,1.80
2022-09-07T12:30:13.727Z,2.13
2022-09-07T12:32:54.960Z,1.50
2022-09-07T12:35:34.064Z,2.08
2022-09-07T12:38:01.331Z,1.65
2022-09-07T12:40:32.040Z,2.78
2022-09-07T12:43:13.732Z,1.63
2022-09-07T12:45:40.209Z,1.40
2022-09-07T12:48:15.535Z,1.27
2022-09-07T12:51:00.090Z,1.38
2022-09-07T12:53:41.578Z,1.98
2022-09-07T12:56:17.806Z,2.03
2022-09-07T12:58:46.894Z,2.10
2022-09-07T13:01:13.473Z,1.50
2022-09-07T13:03:52.382Z,1.90
2022-09-07T13:09:23.943Z,1.20
2022-09-07T13:11:50.379Z,1.40
2022-09-07T13:14:19.419Z,1.15
2022-09-07T13:19:52.120Z,1.38
2022-09-07T13:22:30.686Z,1.52
2022-09-07T13:24:59.629Z,1.35
2022-09-07T13:27:41.469Z,1.48
2022-09-07T13:30:07.816Z,1.60
2022-09-07T13:35:21.571Z,2.08
2022-09-07T13:37:51.243Z,1.38
2022-09-07T13:43:24.488Z,1.30
2022-09-07T13:45:53.920Z,1.40
2022-09-07T13:48:42.151Z,1.83
2022-09-07T13:54:22.192Z,1.30
2022-09-07T13:56:56.875Z,2.28
2022-09-07T13:59:25.297Z,1.65
2022-09-07T14:01:52.017Z,1.30
2022-09-07T14:04:23.872Z,1.35
2022-09-07T14:06:50.471Z,1.40
2022-09-07T14:09:18.908Z,2.20
2022-09-07T14:11:46.987Z,1.20
2022-09-07T14:14:26.883Z,1.10
2022-09-07T14:16:54.272Z,1.33
2022-09-07T14:19:24.083Z,1.70
2022-09-07T14:21:58.054Z,1.40
2022-09-07T14:24:29.821Z,1.55
2022-09-07T14:26:56.287Z,1.38
2022-09-07T14:29:24.073Z,1.50
2022-09-07T14:31:50.979Z,1.70
2022-09-07T14:34:19.451Z,1.13
2022-09-07T14:36:47.273Z,1.30
2022-09-07T14:39:18.110Z,1.27
2022-09-07T14:41:45.233Z,1.13
2022-09-07T14:44:27.621Z,1.48
2022-09-07T14:46:56.702Z,1.27
2022-09-07T14:49:23.857Z,1.40
2022-09-07T14:51:52.111Z,1.50
2022-09-07T14:54:20.658Z,1.40
2022-09-07T14:57:05.815Z,1.35
2022-09-07T14:59:43.144Z,1.35
2022-09-07T15:02:18.954Z,1.52
2022-09-07T15:04:46.503Z,1.20
2022-09-07T15:07:31.593Z,1.50
2022-09-07T15:10:12.101Z,1.30
2022-09-07T15:12:41.330Z,1.40
2022-09-07T15:15:22.114Z,1.08
2022-09-07T15:17:49.237Z,1.38
2022-09-07T15:20:31.221Z,1.25
2022-09-07T15:22:58.059Z,1.30
2022-09-07T15:25:24.500Z,1.30
2022-09-07T15:27:50.997Z,1.50
2022-09-07T15:30:17.727Z,1.40
2022-09-07T15:32:44.290Z,1.25
2022-09-07T15:35:10.955Z,1.08
2022-09-07T15:40:25.044Z,1.20
2022-09-07T15:42:59.783Z,0.95
2022-09-07T15:45:26.667Z,1.30
2022-09-07T15:47:53.635Z,1.40
2022-09-07T15:50:23.151Z,1.30
2022-09-07T15:52:49.859Z,1.23
2022-09-07T15:55:17.380Z,1.33
2022-09-07T15:57:59.253Z,1.20
2022-09-07T16:00:26.428Z,1.30
2022-09-07T16:03:09.039Z,1.45
2022-09-07T16:05:35.750Z,1.30
2022-09-07T16:11:05.815Z,1.27
2022-09-07T16:13:33.894Z,1.40
2022-09-07T16:16:00.492Z,1.27
2022-09-07T16:18:31.302Z,1.30
2022-09-07T16:21:03.414Z,1.30
2022-09-07T16:26:00.382Z,1.20
2022-09-07T16:28:27.608Z,1.52
2022-09-07T16:30:54.131Z,1.40
2022-09-07T16:33:21.064Z,1.15
2022-09-07T16:36:00.720Z,1.40
2022-09-07T16:41:15.403Z,1.20
2022-09-07T16:43:42.248Z,1.55
2022-09-07T16:46:11.509Z,1.38
2022-09-07T16:48:38.071Z,1.40
2022-09-07T16:51:05.059Z,1.20
2022-09-07T16:53:32.577Z,1.50
2022-09-07T16:56:02.142Z,1.42
2022-09-07T16:58:47.408Z,1.50
2022-09-07T17:01:15.135Z,1.65
2022-09-07T17:03:41.814Z,1.40
2022-09-07T17:06:09.192Z,1.33
2022-09-07T17:08:36.778Z,1.80
2022-09-07T17:11:04.867Z,1.52
2022-09-07T17:13:31.927Z,1.50
2022-09-07T17:16:05.270Z,1.58
2022-09-07T17:21:19.777Z,2.00
2022-09-07T17:23:54.422Z,1.58
2022-09-07T17:26:23.616Z,1.48
2022-09-07T17:28:53.903Z,1.58
2022-09-07T17:34:13.447Z,1.83
2022-09-07T17:36:40.414Z,2.10
2022-09-07T17:39:16.270Z,2.28
2022-09-07T17:41:43.843Z,2.53
2022-09-07T17:44:10.327Z,1.60
2022-09-07T17:46:36.785Z,1.60
2022-09-07T17:49:03.525Z,1.88
2022-09-07T17:51:31.047Z,1.60
2022-09-07T17:54:02.665Z,1.83
2022-09-07T17:56:30.024Z,1.55
2022-09-07T18:00:10.461Z,1.63
2022-09-07T18:01:43.088Z,1.50
2022-09-07T18:04:09.981Z,1.60
2022-09-07T18:06:36.682Z,1.85
2022-09-07T18:09:04.363Z,1.50
2022-09-07T18:11:48.234Z,2.08
2022-09-07T18:14:15.524Z,1.90
2022-09-07T18:16:43.464Z,1.60
2022-09-07T18:19:11.149Z,1.45
2022-09-07T18:21:38.299Z,1.70
2022-09-07T18:24:07.563Z,1.70
2022-09-07T18:26:35.388Z,1.40
2022-09-07T18:29:04.043Z,1.40
2022-09-07T18:31:31.783Z,1.50
2022-09-07T18:33:58.566Z,1.40
2022-09-07T18:36:25.558Z,1.67
2022-09-07T18:38:52.301Z,3.22
2022-09-07T18:41:19.113Z,3.30
2022-09-07T18:43:47.577Z,4.93
2022-09-07T18:46:15.823Z,5.13
2022-09-07T18:48:42.611Z,5.78
2022-09-07T18:51:09.777Z,4.93
2022-09-07T18:53:36.631Z,5.40
2022-09-07T18:56:04.341Z,7.20
2022-09-07T18:58:31.480Z,7.20
2022-09-07T19:01:02.582Z,7.00
2022-09-07T19:03:29.107Z,7.33
2022-09-07T19:06:03.752Z,7.13
2022-09-07T19:08:30.855Z,7.65
2022-09-07T19:11:03.649Z,7.57
2022-09-07T19:13:30.133Z,7.63
2022-09-07T19:16:02.889Z,7.60
2022-09-07T19:18:30.138Z,7.30
2022-09-07T19:21:02.300Z,8.25
2022-09-07T19:27:00.939Z,7.50
2022-09-07T19:29:27.748Z,7.57
2022-09-07T19:32:06.955Z,7.22
2022-09-07T19:34:34.426Z,7.63
2022-09-07T19:37:01.610Z,7.40
2022-09-07T19:39:28.137Z,7.00
2022-09-07T19:41:54.645Z,7.10
2022-09-07T19:44:21.114Z,7.15
2022-09-07T19:46:47.763Z,7.10
2022-09-07T19:49:14.498Z,6.78
2022-09-07T19:51:41.657Z,6.50
2022-09-07T19:54:11.864Z,6.43
2022-09-07T19:56:39.290Z,5.55
2022-09-07T19:59:06.085Z,6.05
2022-09-07T20:01:32.647Z,5.63
2022-09-07T20:04:00.244Z,5.90
2022-09-07T20:06:27.085Z,6.53
2022-09-07T20:08:54.468Z,5.90
2022-09-07T20:11:21.035Z,5.68
2022-09-07T20:13:47.449Z,5.70
2022-09-07T20:16:15.385Z,5.28
2022-09-07T20:18:42.123Z,5.30
2022-09-07T20:21:11.462Z,5.22
2022-09-07T20:23:38.305Z,5.30
2022-09-07T20:26:09.139Z,5.25
2022-09-07T20:28:36.882Z,4.88
2022-09-07T20:31:08.363Z,4.30
2022-09-07T20:33:35.047Z,4.60
2022-09-07T20:36:04.534Z,4.63
2022-09-07T20:38:31.108Z,4.10
2022-09-07T20:40:58.897Z,4.82
2022-09-07T20:43:25.625Z,4.70
2022-09-07T20:45:56.614Z,4.15
2022-09-07T20:48:23.016Z,4.70
2022-09-07T20:50:56.507Z,4.28
2022-09-07T20:53:23.093Z,4.10
2022-09-07T20:55:57.295Z,4.07
2022-09-07T20:58:23.796Z,3.65
2022-09-07T21:00:51.163Z,4.15
2022-09-07T21:03:17.588Z,3.95
2022-09-07T21:05:43.983Z,3.80
2022-09-07T21:08:12.714Z,4.18
2022-09-07T21:10:43.081Z,3.95
2022-09-07T21:13:09.660Z,3.60
2022-09-07T21:15:40.430Z,3.75
2022-09-07T21:18:08.618Z,3.42
2022-09-07T21:20:35.039Z,3.58
2022-09-07T21:23:01.627Z,3.67
2022-09-07T21:25:28.097Z,3.85
2022-09-07T21:27:54.633Z,3.08
2022-09-07T21:30:21.070Z,4.07
2022-09-07T21:32:53.608Z,3.60
2022-09-07T21:35:20.167Z,3.83
2022-09-07T21:37:46.575Z,3.72
2022-09-07T21:40:13.042Z,3.35
2022-09-07T21:42:39.515Z,3.45
2022-09-07T21:45:07.416Z,3.20
2022-09-07T21:47:33.965Z,3.50
2022-09-07T21:50:00.375Z,3.83
2022-09-07T21:52:26.822Z,3.22
2022-09-07T21:54:53.312Z,3.47
2022-09-07T21:57:19.727Z,3.03
2022-09-07T21:59:46.160Z,3.05
2022-09-07T22:02:12.771Z,3.30
2022-09-07T22:04:39.227Z,3.15
2022-09-07T22:07:05.623Z,3.28
2022-09-07T22:09:31.988Z,3.13
2022-09-07T22:12:00.032Z,3.05
2022-09-07T22:14:26.537Z,3.40
2022-09-07T22:16:53.015Z,3.40
2022-09-07T22:19:19.497Z,4.45
2022-09-07T22:21:45.934Z,2.78
2022-09-07T22:24:12.655Z,3.05
2022-09-07T22:26:39.163Z,2.92
2022-09-07T22:29:06.532Z,3.17
2022-09-07T22:31:34.253Z,2.45
2022-09-07T22:34:01.710Z,2.30
2022-09-07T22:36:32.520Z,2.65
2022-09-07T22:39:00.073Z,2.80
2022-09-07T22:41:27.734Z,2.97
2022-09-07T22:52:06.788Z,2.42
2022-09-07T22:54:33.280Z,2.60
2022-09-07T22:56:59.787Z,2.80
2022-09-07T22:59:26.637Z,2.50
2022-09-07T23:01:52.995Z,2.20
2022-09-07T23:04:19.458Z,2.25
2022-09-07T23:06:45.909Z,2.80
2022-09-07T23:09:13.999Z,2.40
2022-09-07T23:11:40.886Z,2.65
2022-09-07T23:14:08.855Z,2.50
2022-09-07T23:16:35.303Z,2.65
2022-09-07T23:19:01.764Z,2.80
2022-09-07T23:21:28.541Z,2.63
2022-09-07T23:23:56.910Z,2.47
2022-09-07T23:26:23.743Z,2.28
2022-09-07T23:28:53.965Z,2.47
2022-09-07T23:31:21.059Z,2.35
2022-09-07T23:33:47.818Z,2.60
2022-09-07T23:36:14.388Z,3.15
2022-09-07T23:38:40.842Z,2.42
2022-09-07T23:41:07.271Z,2.15
2022-09-07T23:43:33.817Z,2.45
2022-09-07T23:46:00.553Z,2.67
2022-09-07T23:48:27.359Z,2.42
2022-09-07T23:50:54.232Z,2.80
2022-09-07T23:53:20.995Z,2.47
2022-09-07T23:55:48.679Z,2.55
2022-09-07T23:58:15.104Z,2.47
